createdAt,value
2018-07-21T00:00:26.170Z,17.00
2018-07-21T00:02:54.652Z,16.40
2018-07-21T00:05:23.134Z,16.30
2018-07-21T00:07:52.827Z,15.73
2018-07-21T00:10:22.763Z,16.47
2018-07-21T00:12:51.793Z,16.33
2018-07-21T00:15:20.704Z,17.03
2018-07-21T00:17:49.514Z,16.40
2018-07-21T00:20:17.955Z,15.67
2018-07-21T00:22:46.842Z,15.90
2018-07-21T00:25:15.700Z,17.00
2018-07-21T00:27:44.273Z,17.37
2018-07-21T00:30:13.205Z,17.37
2018-07-21T00:32:41.834Z,17.93
2018-07-21T00:35:10.342Z,17.40
2018-07-21T00:37:39.569Z,17.13
2018-07-21T00:40:08.324Z,17.17
2018-07-21T00:42:36.809Z,18.60
2018-07-21T00:45:05.958Z,17.73
2018-07-21T00:47:34.925Z,18.83
2018-07-21T00:50:04.061Z,18.37
2018-07-21T00:52:32.885Z,17.47
2018-07-21T00:55:01.646Z,18.03
2018-07-21T00:57:30.132Z,18.20
2018-07-21T00:59:59.498Z,18.63
2018-07-21T01:02:28.424Z,18.67
2018-07-21T01:04:57.137Z,18.80
2018-07-21T01:07:26.780Z,17.83
2018-07-21T01:09:55.285Z,18.00
2018-07-21T01:12:24.033Z,17.73
2018-07-21T01:14:52.930Z,18.27
2018-07-21T01:17:21.701Z,19.20
2018-07-21T01:19:50.366Z,18.50
2018-07-21T01:22:19.287Z,19.53
2018-07-21T01:24:48.046Z,18.53
2018-07-21T01:27:16.825Z,19.83
2018-07-21T01:29:45.665Z,19.50
2018-07-21T01:32:14.717Z,18.80
2018-07-21T01:34:43.501Z,18.23
2018-07-21T01:37:12.220Z,18.80
2018-07-21T01:39:40.657Z,18.67
2018-07-21T01:42:09.754Z,18.77
2018-07-21T01:44:38.908Z,18.43
2018-07-21T01:47:07.410Z,17.87
2018-07-21T01:49:36.401Z,18.07
2018-07-21T01:52:05.267Z,16.80
2018-07-21T01:54:33.730Z,16.90
2018-07-21T01:57:02.209Z,17.67
2018-07-21T01:59:31.332Z,17.43
2018-07-21T02:01:59.832Z,17.77
2018-07-21T02:04:28.708Z,17.70
2018-07-21T02:06:57.668Z,16.50
2018-07-21T02:09:26.513Z,16.37
2018-07-21T02:11:55.002Z,16.33
2018-07-21T02:14:24.141Z,17.17
2018-07-21T02:16:53.166Z,16.53
2018-07-21T02:19:21.679Z,16.63
2018-07-21T02:21:50.399Z,16.53
2018-07-21T02:24:18.873Z,17.53
2018-07-21T02:26:47.350Z,16.67
2018-07-21T02:29:16.414Z,16.30
2018-07-21T02:31:45.452Z,16.47
2018-07-21T02:34:13.917Z,16.67
2018-07-21T02:36:42.828Z,15.57
2018-07-21T02:39:12.804Z,14.73
2018-07-21T02:41:41.740Z,14.13
2018-07-21T02:44:10.409Z,14.40
2018-07-21T02:46:38.966Z,14.77
2018-07-21T02:49:07.437Z,15.27
2018-07-21T02:51:36.176Z,15.63
2018-07-21T02:54:04.805Z,14.00
2018-07-21T02:56:33.650Z,14.67
2018-07-21T02:59:02.377Z,15.57
2018-07-21T03:01:30.825Z,15.80
2018-07-21T03:03:59.613Z,15.43
2018-07-21T03:06:28.400Z,14.20
2018-07-21T03:08:56.874Z,14.10
2018-07-21T03:11:25.357Z,14.23
2018-07-21T03:13:56.649Z,13.93
2018-07-21T03:16:25.298Z,14.43
2018-07-21T03:18:54.525Z,14.87
2018-07-21T03:21:23.146Z,15.10
2018-07-21T03:23:51.995Z,16.60
2018-07-21T03:26:20.838Z,15.70
2018-07-21T03:28:49.366Z,15.93
2018-07-21T03:31:18.774Z,15.90
2018-07-21T03:33:47.925Z,15.53
2018-07-21T03:36:16.399Z,16.13
2018-07-21T03:38:45.009Z,16.63
2018-07-21T03:41:13.904Z,17.27
2018-07-21T03:43:42.381Z,16.40
2018-07-21T03:46:10.845Z,18.17
2018-07-21T03:48:39.944Z,17.23
2018-07-21T03:51:08.809Z,18.20
2018-07-21T03:53:37.387Z,17.80
2018-07-21T03:56:06.398Z,18.00
2018-07-21T03:58:35.096Z,17.93
2018-07-21T04:01:03.605Z,17.83
2018-07-21T04:03:32.686Z,18.00
2018-07-21T04:06:01.575Z,19.13
2018-07-21T04:08:30.725Z,17.60
2018-07-21T04:10:59.842Z,18.40
2018-07-21T04:13:28.285Z,18.40
2018-07-21T04:15:56.745Z,16.90
2018-07-21T04:18:25.729Z,18.23
2018-07-21T04:20:54.181Z,19.03
2018-07-21T04:23:23.189Z,17.97
2018-07-21T04:25:52.433Z,17.93
2018-07-21T04:28:21.010Z,17.83
2018-07-21T04:30:50.121Z,18.47
2018-07-21T04:33:19.389Z,18.07
2018-07-21T04:35:47.846Z,18.47
2018-07-21T04:38:16.509Z,19.43
2018-07-21T04:40:45.376Z,17.80
2018-07-21T04:43:13.813Z,17.97
2018-07-21T04:45:42.271Z,18.13
2018-07-21T04:48:11.559Z,19.27
2018-07-21T04:50:40.018Z,18.83
2018-07-21T04:53:08.958Z,18.00
2018-07-21T04:55:38.441Z,17.90
2018-07-21T04:58:06.964Z,18.43
2018-07-21T05:00:35.448Z,18.93
2018-07-21T05:03:04.472Z,18.93
2018-07-21T05:05:32.977Z,18.40
2018-07-21T05:08:01.729Z,19.13
2018-07-21T05:10:30.954Z,18.87
2018-07-21T05:12:59.653Z,19.93
2018-07-21T05:15:28.345Z,20.00
2018-07-21T05:17:56.945Z,20.27
2018-07-21T05:20:25.706Z,20.13
2018-07-21T05:22:54.161Z,20.27
2018-07-21T05:25:23.289Z,19.93
2018-07-21T05:27:53.046Z,20.20
2018-07-21T05:30:22.009Z,21.03
2018-07-21T05:32:51.170Z,21.30
2018-07-21T05:35:20.110Z,22.57
2018-07-21T05:37:48.989Z,22.17
2018-07-21T05:40:17.875Z,19.03
2018-07-21T05:42:46.617Z,20.47
2018-07-21T05:45:15.151Z,20.23
2018-07-21T05:47:44.010Z,21.50
2018-07-21T05:50:12.613Z,23.50
2018-07-21T05:52:41.433Z,19.93
2018-07-21T05:55:10.288Z,21.33
2018-07-21T05:57:38.776Z,20.27
2018-07-21T06:00:10.622Z,19.77
2018-07-21T06:02:40.086Z,21.03
2018-07-21T06:05:08.526Z,22.90
2018-07-21T06:07:37.201Z,24.03
2018-07-21T06:10:06.010Z,22.07
2018-07-21T06:12:34.565Z,22.63
2018-07-21T06:15:04.129Z,20.70
2018-07-21T06:17:33.370Z,22.17
2018-07-21T06:20:02.077Z,22.43
2018-07-21T06:22:31.109Z,23.10
2018-07-21T06:25:00.069Z,22.20
2018-07-21T06:27:28.520Z,22.37
2018-07-21T06:29:57.212Z,22.62
2018-07-21T06:32:26.083Z,23.33
2018-07-21T06:34:54.546Z,22.50
2018-07-21T06:37:24.075Z,23.43
2018-07-21T06:39:54.029Z,22.83
2018-07-21T06:42:22.953Z,22.93
2018-07-21T06:44:51.447Z,19.00
2018-07-21T06:47:20.522Z,20.17
2018-07-21T06:49:49.020Z,22.45
2018-07-21T06:52:17.513Z,21.37
2018-07-21T06:54:46.416Z,21.52
2018-07-21T06:57:15.134Z,20.90
2018-07-21T06:59:43.638Z,21.05
2018-07-21T07:02:12.765Z,22.00
2018-07-21T07:04:41.565Z,19.57
2018-07-21T07:07:10.009Z,21.62
2018-07-21T07:09:38.935Z,21.27
2018-07-21T07:12:08.856Z,21.00
2018-07-21T07:14:37.309Z,21.25
2018-07-21T07:17:06.440Z,21.02
2018-07-21T07:19:35.211Z,21.37
2018-07-21T07:22:03.717Z,20.90
2018-07-21T07:24:32.477Z,21.57
2018-07-21T07:27:01.307Z,22.20
2018-07-21T07:29:29.775Z,20.00
2018-07-21T07:31:58.289Z,18.77
2018-07-21T07:34:27.016Z,20.20
2018-07-21T07:36:55.473Z,20.05
2018-07-21T07:39:24.519Z,20.00
2018-07-21T07:41:53.388Z,17.95
2018-07-21T07:44:22.073Z,18.70
2018-07-21T07:46:51.654Z,17.25
2018-07-21T07:49:20.445Z,18.60
2018-07-21T07:51:49.357Z,18.25
2018-07-21T07:54:18.114Z,20.17
2018-07-21T07:56:46.589Z,20.62
2018-07-21T07:59:15.412Z,20.85
2018-07-21T08:01:44.375Z,20.77
2018-07-21T08:04:12.821Z,20.72
2018-07-21T08:06:41.774Z,19.95
2018-07-21T08:09:12.301Z,20.92
2018-07-21T08:11:41.553Z,19.80
2018-07-21T08:14:10.025Z,20.23
2018-07-21T08:16:39.221Z,19.85
2018-07-21T08:19:09.020Z,19.00
2018-07-21T08:21:37.581Z,20.37
2018-07-21T08:24:06.759Z,18.85
2018-07-21T08:26:35.213Z,19.27
2018-07-21T08:29:03.737Z,18.50
2018-07-21T08:31:32.922Z,18.05
2018-07-21T08:34:01.530Z,18.90
2018-07-21T08:36:29.983Z,18.48
2018-07-21T08:38:58.936Z,18.27
2018-07-21T08:41:27.790Z,17.87
2018-07-21T08:43:56.297Z,17.27
2018-07-21T08:46:24.974Z,16.55
2018-07-21T08:48:54.016Z,16.48
2018-07-21T08:51:22.449Z,16.05
2018-07-21T08:53:51.581Z,17.20
2018-07-21T08:56:20.174Z,16.67
2018-07-21T08:58:49.086Z,15.88
2018-07-21T09:01:17.977Z,15.32
2018-07-21T09:03:46.469Z,15.60
2018-07-21T09:06:15.163Z,15.55
2018-07-21T09:08:43.654Z,14.10
2018-07-21T09:11:12.423Z,13.95
2018-07-21T09:13:41.196Z,13.90
2018-07-21T09:16:10.065Z,14.03
2018-07-21T09:18:38.759Z,14.10
2018-07-21T09:21:07.264Z,13.93
2018-07-21T09:23:36.277Z,13.95
2018-07-21T09:26:04.929Z,13.80
2018-07-21T09:28:33.381Z,14.10
2018-07-21T09:31:01.989Z,13.72
2018-07-21T09:33:30.663Z,13.95
2018-07-21T09:36:03.782Z,13.78
2018-07-21T09:38:32.837Z,13.75
2018-07-21T09:41:01.285Z,12.75
2018-07-21T09:43:30.151Z,12.65
2018-07-21T09:45:59.286Z,12.58
2018-07-21T09:48:27.773Z,12.88
2018-07-21T09:50:56.844Z,12.82
2018-07-21T09:53:25.555Z,12.55
2018-07-21T09:55:54.151Z,12.60
2018-07-21T09:58:22.786Z,12.90
2018-07-21T10:00:56.619Z,12.37
2018-07-21T10:03:25.896Z,12.33
2018-07-21T10:05:55.075Z,11.48
2018-07-21T10:08:23.641Z,11.40
2018-07-21T10:10:54.365Z,12.60
2018-07-21T10:13:22.869Z,11.88
2018-07-21T10:15:51.949Z,11.48
2018-07-21T10:18:20.718Z,12.07
2018-07-21T10:20:49.177Z,12.10
2018-07-21T10:23:17.892Z,11.65
2018-07-21T10:25:52.202Z,11.73
2018-07-21T10:28:26.052Z,10.72
2018-07-21T10:30:54.919Z,10.60
2018-07-21T10:33:24.176Z,9.43
2018-07-21T10:35:52.701Z,11.25
2018-07-21T10:38:21.581Z,9.05
2018-07-21T10:40:50.139Z,8.30
2018-07-21T10:43:18.751Z,8.15
2018-07-21T10:45:47.561Z,8.63
2018-07-21T10:48:16.045Z,8.58
2018-07-21T10:50:44.556Z,9.60
2018-07-21T10:53:13.393Z,9.23
2018-07-21T10:55:42.153Z,8.45
2018-07-21T10:58:10.693Z,9.05
2018-07-21T11:00:39.170Z,9.05
2018-07-21T11:03:07.927Z,9.05
2018-07-21T11:05:36.378Z,9.20
2018-07-21T11:08:05.488Z,8.93
2018-07-21T11:10:34.293Z,9.08
2018-07-21T11:13:02.941Z,8.78
2018-07-21T11:15:31.624Z,8.60
2018-07-21T11:18:01.123Z,9.10
2018-07-21T11:20:29.993Z,9.18
2018-07-21T11:22:58.500Z,9.40
2018-07-21T11:25:27.010Z,9.50
2018-07-21T11:27:56.010Z,9.40
2018-07-21T11:30:24.970Z,9.40
2018-07-21T11:32:53.678Z,8.85
2018-07-21T11:35:22.951Z,8.65
2018-07-21T11:37:51.445Z,9.58
2018-07-21T11:40:20.429Z,9.25
2018-07-21T11:42:49.030Z,8.78
2018-07-21T11:45:17.945Z,9.20
2018-07-21T11:47:46.373Z,8.15
2018-07-21T11:50:14.828Z,8.08
2018-07-21T11:52:43.664Z,8.28
2018-07-21T11:55:12.094Z,8.38
2018-07-21T11:57:40.541Z,9.23
2018-07-21T12:00:10.048Z,8.93
2018-07-21T12:02:39.134Z,8.30
2018-07-21T12:05:07.588Z,8.78
2018-07-21T12:07:36.744Z,8.38
2018-07-21T12:10:05.741Z,8.98
2018-07-21T12:12:34.200Z,8.55
2018-07-21T12:15:02.705Z,8.35
2018-07-21T12:17:31.557Z,8.05
2018-07-21T12:20:00.018Z,8.20
2018-07-21T12:22:28.901Z,8.40
2018-07-21T12:24:57.603Z,9.28
2018-07-21T12:27:26.311Z,10.00
2018-07-21T12:29:55.005Z,9.93
2018-07-21T12:32:23.881Z,10.38
2018-07-21T12:34:52.667Z,10.53
2018-07-21T12:37:21.146Z,9.60
2018-07-21T12:39:49.605Z,9.35
2018-07-21T12:42:18.406Z,9.73
2018-07-21T12:44:47.042Z,9.80
2018-07-21T12:47:15.515Z,9.30
2018-07-21T12:49:44.676Z,10.32
2018-07-21T12:52:13.149Z,9.63
2018-07-21T12:54:44.511Z,9.53
2018-07-21T12:57:13.433Z,9.30
2018-07-21T12:59:41.957Z,9.50
2018-07-21T13:02:10.457Z,9.48
2018-07-21T13:04:38.969Z,9.15
2018-07-21T13:07:08.236Z,9.88
2018-07-21T13:09:36.756Z,9.03
2018-07-21T13:12:05.518Z,9.63
2018-07-21T13:14:34.137Z,10.40
2018-07-21T13:17:05.189Z,10.63
2018-07-21T13:19:34.001Z,10.58
2018-07-21T13:22:02.926Z,10.43
2018-07-21T13:24:31.601Z,9.68
2018-07-21T13:27:00.072Z,9.93
2018-07-21T13:29:29.129Z,10.08
2018-07-21T13:31:57.839Z,10.30
2018-07-21T13:34:26.329Z,10.70
2018-07-21T13:36:55.222Z,10.55
2018-07-21T13:39:23.692Z,10.55
2018-07-21T13:41:52.374Z,9.93
2018-07-21T13:44:21.115Z,11.00
2018-07-21T13:46:49.581Z,11.12
2018-07-21T13:49:18.029Z,11.03
2018-07-21T13:51:47.063Z,10.50
2018-07-21T13:54:15.833Z,10.48
2018-07-21T13:56:44.315Z,11.05
2018-07-21T13:59:12.889Z,10.05
2018-07-21T14:01:42.217Z,10.25
2018-07-21T14:04:10.673Z,10.15
2018-07-21T14:06:39.417Z,10.13
2018-07-21T14:09:09.237Z,10.40
2018-07-21T14:11:38.426Z,11.03
2018-07-21T14:14:07.565Z,9.55
2018-07-21T14:16:36.477Z,10.13
2018-07-21T14:19:05.446Z,10.90
2018-07-21T14:21:34.361Z,10.13
2018-07-21T14:24:03.461Z,9.43
2018-07-21T14:26:32.548Z,9.55
2018-07-21T14:29:01.880Z,9.50
2018-07-21T14:31:30.341Z,8.98
2018-07-21T14:33:58.985Z,9.95
2018-07-21T14:36:28.342Z,9.33
2018-07-21T14:38:56.759Z,10.03
2018-07-21T14:41:25.201Z,8.83
2018-07-21T14:43:54.307Z,8.33
2018-07-21T14:46:23.639Z,9.13
2018-07-21T14:48:53.065Z,8.68
2018-07-21T14:51:25.557Z,8.68
2018-07-21T14:53:54.761Z,9.20
2018-07-21T14:56:23.653Z,8.98
2018-07-21T14:58:53.213Z,9.75
2018-07-21T15:01:22.584Z,9.78
2018-07-21T15:03:57.766Z,8.78
2018-07-21T15:06:26.585Z,12.75
2018-07-21T15:08:55.110Z,9.18
2018-07-21T15:11:23.845Z,9.20
2018-07-21T15:13:52.686Z,10.08
2018-07-21T15:16:22.278Z,10.38
2018-07-21T15:18:51.091Z,9.50
2018-07-21T15:21:20.073Z,9.18
2018-07-21T15:23:48.529Z,10.18
2018-07-21T15:26:17.545Z,9.60
2018-07-21T15:28:46.749Z,9.10
2018-07-21T15:31:15.300Z,9.03
2018-07-21T15:33:45.743Z,9.53
2018-07-21T15:36:15.057Z,9.10
2018-07-21T15:38:43.567Z,9.25
2018-07-21T15:41:12.019Z,9.43
2018-07-21T15:43:41.237Z,10.03
2018-07-21T15:46:09.698Z,9.78
2018-07-21T15:48:38.144Z,10.20
2018-07-21T15:51:07.147Z,10.78
2018-07-21T15:53:35.597Z,10.75
2018-07-21T15:56:04.066Z,10.05
2018-07-21T15:58:33.248Z,10.93
2018-07-21T16:01:01.706Z,11.30
2018-07-21T16:03:30.194Z,12.28
2018-07-21T16:05:59.462Z,11.30
2018-07-21T16:08:34.800Z,11.10
2018-07-21T16:11:03.317Z,10.85
2018-07-21T16:13:32.254Z,11.63
2018-07-21T16:16:00.788Z,11.48
2018-07-21T16:18:29.807Z,12.70
2018-07-21T16:21:00.576Z,11.38
2018-07-21T16:23:29.514Z,12.37
2018-07-21T16:26:05.200Z,11.57
2018-07-21T16:28:33.974Z,12.70
2018-07-21T16:31:02.435Z,12.07
2018-07-21T16:33:31.270Z,11.35
2018-07-21T16:35:59.993Z,11.03
2018-07-21T16:38:28.958Z,11.05
2018-07-21T16:40:57.417Z,11.35
2018-07-21T16:43:26.081Z,12.20
2018-07-21T16:45:55.907Z,11.60
2018-07-21T16:48:24.676Z,11.60
2018-07-21T16:50:53.871Z,11.00
2018-07-21T16:53:24.013Z,10.80
2018-07-21T16:55:52.458Z,10.50
2018-07-21T16:58:21.250Z,11.57
2018-07-21T17:00:50.088Z,11.05
2018-07-21T17:03:18.534Z,10.30
2018-07-21T17:05:47.325Z,10.53
2018-07-21T17:08:16.465Z,10.30
2018-07-21T17:10:45.809Z,9.95
2018-07-21T17:13:14.562Z,9.53
2018-07-21T17:15:43.294Z,10.00
2018-07-21T17:18:11.975Z,10.80
2018-07-21T17:20:40.749Z,11.38
2018-07-21T17:23:09.472Z,9.85
2018-07-21T17:25:38.358Z,9.80
2018-07-21T17:28:07.333Z,10.85
2018-07-21T17:30:35.808Z,10.25
2018-07-21T17:33:04.326Z,10.80
2018-07-21T17:35:33.065Z,10.10
2018-07-21T17:38:01.990Z,12.13
2018-07-21T17:40:30.733Z,10.10
2018-07-21T17:42:59.733Z,12.13
2018-07-21T17:45:28.392Z,9.18
2018-07-21T17:47:56.825Z,9.60
2018-07-21T17:50:25.384Z,8.73
2018-07-21T17:53:01.337Z,9.03
2018-07-21T17:55:29.977Z,8.65
2018-07-21T17:57:59.021Z,9.28
2018-07-21T18:00:27.754Z,10.10
2018-07-21T18:02:56.219Z,10.20
2018-07-21T18:05:25.218Z,12.13
2018-07-21T18:07:53.953Z,9.08
2018-07-21T18:10:22.708Z,16.12
2018-07-21T18:12:51.388Z,9.65
2018-07-21T18:15:20.161Z,8.23
2018-07-21T18:17:49.001Z,11.03
2018-07-21T18:20:17.638Z,11.05
2018-07-21T18:22:46.509Z,9.53
2018-07-21T18:25:15.424Z,7.83
2018-07-21T18:27:43.863Z,8.40
2018-07-21T18:30:12.426Z,11.55
2018-07-21T18:32:42.661Z,8.08
2018-07-21T18:35:11.329Z,8.20
2018-07-21T18:37:40.001Z,9.70
2018-07-21T18:40:08.529Z,11.70
2018-07-21T18:42:37.380Z,10.85
2018-07-21T18:45:06.625Z,10.85
2018-07-21T18:47:35.351Z,9.28
2018-07-21T18:50:04.443Z,10.43
2018-07-21T18:52:33.317Z,11.12
2018-07-21T18:55:01.822Z,8.40
2018-07-21T18:57:31.061Z,7.42
2018-07-21T18:59:59.903Z,8.03
2018-07-21T19:02:29.189Z,7.90
2018-07-21T19:04:58.063Z,9.73
2018-07-21T19:07:26.815Z,7.35
2018-07-21T19:09:55.667Z,9.23
2018-07-21T19:12:30.012Z,7.45
2018-07-21T19:14:58.506Z,7.90
2018-07-21T19:17:26.937Z,6.95
2018-07-21T19:20:00.689Z,7.10
2018-07-21T19:22:29.697Z,7.83
2018-07-21T19:24:59.919Z,7.78
2018-07-21T19:27:33.133Z,7.20
2018-07-21T19:30:02.493Z,8.20
2018-07-21T19:32:38.165Z,8.28
2018-07-21T19:35:07.057Z,8.55
2018-07-21T19:37:40.895Z,12.43
2018-07-21T19:40:09.770Z,6.60
2018-07-21T19:42:38.497Z,6.47
2018-07-21T19:45:06.966Z,7.35
2018-07-21T19:47:35.779Z,7.17
2018-07-21T19:50:04.437Z,8.40
2018-07-21T19:52:33.313Z,6.97
2018-07-21T19:55:02.366Z,8.38
2018-07-21T19:57:31.169Z,7.72
2018-07-21T20:00:00.081Z,8.38
2018-07-21T20:02:28.807Z,9.05
2018-07-21T20:04:57.286Z,7.55
2018-07-21T20:07:26.108Z,8.35
2018-07-21T20:09:55.772Z,8.28
2018-07-21T20:12:25.328Z,8.90
2018-07-21T20:14:53.896Z,9.43
2018-07-21T20:17:23.395Z,8.58
2018-07-21T20:19:51.764Z,9.15
2018-07-21T20:22:20.249Z,9.28
2018-07-21T20:24:48.821Z,10.05
2018-07-21T20:27:19.413Z,8.05
2018-07-21T20:29:47.884Z,9.15
2018-07-21T20:32:16.557Z,8.45
2018-07-21T20:34:46.394Z,9.53
2018-07-21T20:37:15.734Z,8.28
2018-07-21T20:39:44.409Z,8.75
2018-07-21T20:42:13.010Z,9.38
2018-07-21T20:44:41.498Z,7.67
2018-07-21T20:47:10.309Z,7.40
2018-07-21T20:49:40.216Z,6.83
2018-07-21T20:52:09.565Z,8.95
2018-07-21T20:54:38.134Z,11.50
2018-07-21T20:57:06.971Z,11.18
2018-07-21T20:59:35.466Z,8.23
2018-07-21T21:02:03.941Z,7.17
2018-07-21T21:04:32.678Z,7.05
2018-07-21T21:07:01.192Z,11.55
2018-07-21T21:09:29.753Z,7.80
2018-07-21T21:11:58.475Z,8.10
2018-07-21T21:14:27.189Z,7.85
2018-07-21T21:16:56.074Z,10.18
2018-07-21T21:19:24.554Z,6.45
2018-07-21T21:21:53.261Z,8.03
2018-07-21T21:24:22.021Z,7.05
2018-07-21T21:26:50.561Z,6.05
2018-07-21T21:29:19.715Z,6.65
2018-07-21T21:31:48.693Z,6.87
2018-07-21T21:34:17.121Z,6.22
2018-07-21T21:36:45.611Z,8.40
2018-07-21T21:39:14.765Z,6.85
2018-07-21T21:41:43.441Z,7.55
2018-07-21T21:44:12.245Z,8.63
2018-07-21T21:46:41.113Z,7.22
2018-07-21T21:49:09.563Z,6.70
2018-07-21T21:51:38.023Z,5.78
2018-07-21T21:54:07.171Z,5.62
2018-07-21T21:56:35.660Z,6.33
2018-07-21T21:59:04.225Z,6.80
2018-07-21T22:01:33.081Z,8.33
2018-07-21T22:04:01.812Z,6.67
2018-07-21T22:06:30.458Z,4.95
2018-07-21T22:08:58.909Z,6.15
2018-07-21T22:11:27.817Z,4.78
2018-07-21T22:13:56.563Z,5.90
2018-07-21T22:16:24.991Z,6.00
2018-07-21T22:18:54.226Z,5.90
2018-07-21T22:21:23.549Z,6.25
2018-07-21T22:23:52.608Z,7.47
2018-07-21T22:26:21.099Z,7.63
2018-07-21T22:28:50.073Z,4.90
2018-07-21T22:31:19.108Z,3.23
2018-07-21T22:33:47.767Z,6.37
2018-07-21T22:36:16.541Z,3.70
2018-07-21T22:38:45.745Z,4.07
2018-07-21T22:41:14.201Z,4.63
2018-07-21T22:43:42.718Z,3.70
2018-07-21T22:46:12.343Z,4.87
2018-07-21T22:48:40.794Z,5.00
2018-07-21T22:51:09.285Z,7.07
2018-07-21T22:53:38.073Z,4.27
2018-07-21T22:56:07.229Z,3.53
2018-07-21T22:58:35.707Z,3.77
2018-07-21T23:01:04.863Z,3.80
2018-07-21T23:03:33.591Z,2.63
2018-07-21T23:06:02.086Z,3.90
2018-07-21T23:08:30.793Z,4.53
2018-07-21T23:10:59.241Z,5.30
2018-07-21T23:13:27.954Z,4.10
2018-07-21T23:15:56.848Z,4.93
2018-07-21T23:18:25.455Z,5.30
2018-07-21T23:20:54.415Z,3.93
2018-07-21T23:23:23.220Z,6.67
2018-07-21T23:25:52.896Z,3.57
2018-07-21T23:28:21.965Z,4.10
2018-07-21T23:30:51.129Z,3.67
2018-07-21T23:33:19.764Z,2.97
2018-07-21T23:35:48.681Z,6.97
2018-07-21T23:38:17.558Z,7.00
2018-07-21T23:40:46.023Z,6.80
2018-07-21T23:43:14.722Z,3.97
2018-07-21T23:45:43.533Z,5.13
2018-07-21T23:48:11.981Z,3.40
2018-07-21T23:50:40.486Z,3.33
2018-07-21T23:53:09.356Z,4.77
2018-07-21T23:55:37.792Z,2.90
2018-07-21T23:58:07.031Z,3.37
